Time;durP1;ratioP1;P1;durP2;ratioP2;P2;SDS_P1;SDS_P2;PMS_P1;PMS_P2;Temp;Humidity;BMP_temperature;BMP_pressure;BME280_temperature;BME280_humidity;BME280_pressure;Samples;Min_cycle;Max_cycle;Signal;HPM_P1;HPM_P2
2023/01/29 00:02:10;;;;;;;;;;;;;;;;;;7373753;19;1633;-70
2023/01/29 00:04:38;;;;;;;;;;;;;;;;;;7375915;19;1664;-71
2023/01/29 00:07:07;;;;;;;;;;;;;;;;;;7372337;19;1665;-71
2023/01/29 00:09:35;;;;;;;;;;;;;;;;;;7373328;19;1569;-69
2023/01/29 00:12:03;;;;;;;;;;;;;;;;;;7371343;19;1885;-70
2023/01/29 00:14:31;;;;;;;;;;;;;;;;;;7369126;19;1860;-70
2023/01/29 00:17:00;;;;;;;;;;;;;;;;;;7370526;19;1972;-69
2023/01/29 00:19:28;;;;;;;;;;;;;;;;;;7370357;19;887;-70
2023/01/29 00:21:56;;;;;;;;;;;;;;;;;;7373414;19;1867;-70
2023/01/29 00:24:24;;;;;;;;;;;;;;;;;;7371182;19;1816;-70
2023/01/29 00:26:52;;;;;;;;;;;;;;;;;;7366744;19;1771;-69
2023/01/29 00:29:20;;;;;;;;;;;;;;;;;;7368216;19;1209;-69
2023/01/29 00:31:49;;;;;;;;;;;;;;;;;;7370672;19;1945;-70
2023/01/29 00:34:17;;;;;;;;;;;;;;;;;;7369064;19;1934;-69
2023/01/29 00:36:45;;;;;;;;;;;;;;;;;;7370424;19;1887;-70
2023/01/29 00:39:14;;;;;;;;;;;;;;;;;;7369427;19;1937;-70
2023/01/29 00:47:03;;;;;;;;;;;;;;;;;;7366276;19;1858;-70
2023/01/29 00:49:31;;;;;;;;;;;;;;;;;;7366320;19;1756;-69
2023/01/29 00:54:46;;;;;;;;;;;;;;;;;;7364717;19;1904;-71
2023/01/29 00:57:14;;;;;;;;;;;;;;;;;;7370213;19;1642;-71
2023/01/29 00:59:42;;;;;;;;;;;;;;;;;;7369079;19;857;-71
2023/01/29 01:04:51;;;;;;;;;;;;;;;;;;7369310;19;1826;-71
2023/01/29 01:07:19;;;;;;;;;;;;;;;;;;7371525;19;1756;-70
2023/01/29 01:12:28;;;;;;;;;;;;;;;;;;7368312;19;1797;-69
2023/01/29 01:14:56;;;;;;;;;;;;;;;;;;7368492;19;1822;-68
2023/01/29 01:17:24;;;;;;;;;;;;;;;;;;7367925;19;1868;-68
2023/01/29 01:19:52;;;;;;;;;;;;;;;;;;7365423;19;862;-69
2023/01/29 01:22:21;;;;;;;;;;;;;;;;;;7373518;19;1684;-69
2023/01/29 01:24:49;;;;;;;;;;;;;;;;;;7368094;19;1606;-69
2023/01/29 01:27:18;;;;;;;;;;;;;;;;;;7370246;19;1711;-69
2023/01/29 01:29:46;;;;;;;;;;;;;;;;;;7368755;19;1197;-69
2023/01/29 01:32:14;;;;;;;;;;;;;;;;;;7370986;19;1435;-69
2023/01/29 01:34:44;;;;;;;;;;;;;;;;;;7364460;19;1822;-70
2023/01/29 01:37:14;;;;;;;;;;;;;;;;;;7368639;19;779;-69
2023/01/29 01:39:42;;;;;;;;;;;;;;;;;;7365821;19;1664;-69
2023/01/29 01:42:10;;;;;;;;;;;;;;;;;;7366378;19;1832;-69
2023/01/29 01:44:39;;;;;;;;;;;;;;;;;;7364936;19;1295;-69
2023/01/29 01:47:07;;;;;;;;;;;;;;;;;;7367162;19;2003;-69
2023/01/29 01:49:35;;;;;;;;;;;;;;;;;;7364173;19;858;-68
2023/01/29 01:52:03;;;;;;;;;;;;;;;;;;7370308;19;1834;-69
2023/01/29 01:54:31;;;;;;;;;;;;;;;;;;7367181;19;1849;-69
2023/01/29 01:57:03;;;;;;;;;;;;;;;;;;7362726;19;1996;-68
2023/01/29 01:59:31;;;;;;;;;;;;;;;;;;7364440;19;708;-70
2023/01/29 02:10:02;;;;;;;;;;;;;;;;;;7365670;19;1905;-69
2023/01/29 02:12:31;;;;;;;;;;;;;;;;;;7364670;19;1905;-70
2023/01/29 02:14:59;;;;;;;;;;;;;;;;;;7367644;19;1849;-70
2023/01/29 02:17:27;;;;;;;;;;;;;;;;;;7366808;19;1881;-69
2023/01/29 02:19:55;;;;;;;;;;;;;;;;;;7367005;19;780;-71
2023/01/29 02:22:24;;;;;;;;;;;;;;;;;;7375027;19;1872;-69
2023/01/29 02:24:52;;;;;;;;;;;;;;;;;;7376707;19;1894;-69
2023/01/29 02:27:21;;;;;;;;;;;;;;;;;;7376364;19;1822;-69
2023/01/29 02:29:49;;;;;;;;;;;;;;;;;;7374232;19;1275;-69
2023/01/29 02:32:17;;;;;;;;;;;;;;;;;;7372174;19;1591;-69
2023/01/29 02:37:26;;;;;;;;;;;;;;;;;;7376265;19;1799;-69
2023/01/29 02:39:55;;;;;;;;;;;;;;;;;;7373395;19;1921;-69
2023/01/29 02:42:24;;;;;;;;;;;;;;;;;;7371884;19;1642;-69
2023/01/29 02:44:52;;;;;;;;;;;;;;;;;;7371766;19;1903;-69
2023/01/29 02:47:21;;;;;;;;;;;;;;;;;;7371075;19;1839;-69
2023/01/29 02:49:51;;;;;;;;;;;;;;;;;;7371834;19;808;-69
2023/01/29 02:52:19;;;;;;;;;;;;;;;;;;7372549;19;1863;-68
2023/01/29 02:54:47;;;;;;;;;;;;;;;;;;7373636;19;1843;-68
2023/01/29 02:57:15;;;;;;;;;;;;;;;;;;7371929;19;1907;-69
2023/01/29 02:59:44;;;;;;;;;;;;;;;;;;7373822;19;1868;-69
2023/01/29 03:02:12;;;;;;;;;;;;;;;;;;7374845;19;1853;-70
2023/01/29 03:04:41;;;;;;;;;;;;;;;;;;7375335;19;1873;-70
2023/01/29 03:07:09;;;;;;;;;;;;;;;;;;7373180;19;1917;-69
2023/01/29 03:09:37;;;;;;;;;;;;;;;;;;7368834;19;871;-69
2023/01/29 03:12:17;;;;;;;;;;;;;;;;;;7370737;19;1898;-69
2023/01/29 03:17:26;;;;;;;;;;;;;;;;;;7372942;19;1895;-69
2023/01/29 03:19:54;;;;;;;;;;;;;;;;;;7370121;19;733;-69
2023/01/29 03:22:24;;;;;;;;;;;;;;;;;;7373387;19;1901;-69
2023/01/29 03:33:04;;;;;;;;;;;;;;;;;;7368940;19;1852;-69
2023/01/29 03:35:38;;;;;;;;;;;;;;;;;;7371817;19;1895;-70
2023/01/29 03:38:08;;;;;;;;;;;;;;;;;;7370331;19;1914;-69
2023/01/29 03:40:36;;;;;;;;;;;;;;;;;;7370402;19;1850;-69
2023/01/29 03:43:05;;;;;;;;;;;;;;;;;;7371069;19;1902;-69
2023/01/29 03:45:33;;;;;;;;;;;;;;;;;;7369196;19;1286;-69
2023/01/29 03:48:01;;;;;;;;;;;;;;;;;;7371417;19;1848;-69
2023/01/29 03:50:30;;;;;;;;;;;;;;;;;;7373730;19;2134;-69
2023/01/29 03:52:58;;;;;;;;;;;;;;;;;;7370075;19;1854;-69
2023/01/29 03:55:26;;;;;;;;;;;;;;;;;;7366959;19;1880;-69
2023/01/29 03:57:55;;;;;;;;;;;;;;;;;;7371065;19;1876;-69
2023/01/29 04:00:24;;;;;;;;;;;;;;;;;;7369617;19;2260;-69
2023/01/29 04:03:00;;;;;;;;;;;;;;;;;;7370861;19;1846;-69
2023/01/29 04:05:28;;;;;;;;;;;;;;;;;;7371295;19;1606;-69
2023/01/29 04:08:08;;;;;;;;;;;;;;;;;;7367882;19;748;-69
2023/01/29 04:10:36;;;;;;;;;;;;;;;;;;7366867;19;896;-69
2023/01/29 04:13:07;;;;;;;;;;;;;;;;;;7372047;19;1620;-69
2023/01/29 04:15:35;;;;;;;;;;;;;;;;;;7366590;19;1862;-70
2023/01/29 04:18:03;;;;;;;;;;;;;;;;;;7371592;19;1789;-69
2023/01/29 04:20:41;;;;;;;;;;;;;;;;;;7370132;19;1800;-69
2023/01/29 04:23:09;;;;;;;;;;;;;;;;;;7369255;19;1915;-69
2023/01/29 04:25:37;;;;;;;;;;;;;;;;;;7367555;19;1858;-69
2023/01/29 04:28:05;;;;;;;;;;;;;;;;;;7369177;19;1821;-70
2023/01/29 04:30:34;;;;;;;;;;;;;;;;;;7371762;19;1221;-70
2023/01/29 04:33:03;;;;;;;;;;;;;;;;;;7368402;19;1870;-70
2023/01/29 04:35:31;;;;;;;;;;;;;;;;;;7368215;19;1861;-70
2023/01/29 04:38:00;;;;;;;;;;;;;;;;;;7367572;19;2146;-69
2023/01/29 04:40:30;;;;;;;;;;;;;;;;;;7368594;19;881;-70
2023/01/29 04:42:58;;;;;;;;;;;;;;;;;;7369466;19;1877;-69
2023/01/29 04:45:26;;;;;;;;;;;;;;;;;;7366333;19;1278;-70
2023/01/29 04:47:55;;;;;;;;;;;;;;;;;;7370411;19;2178;-70
2023/01/29 04:50:23;;;;;;;;;;;;;;;;;;7368081;19;1649;-69
2023/01/29 04:52:51;;;;;;;;;;;;;;;;;;7370750;19;1879;-68
2023/01/29 04:55:19;;;;;;;;;;;;;;;;;;7365227;19;1841;-68
2023/01/29 04:57:47;;;;;;;;;;;;;;;;;;7371329;19;1862;-69
2023/01/29 05:00:15;;;;;;;;;;;;;;;;;;7371168;19;1618;-70
2023/01/29 05:02:44;;;;;;;;;;;;;;;;;;7371575;19;1837;-68
2023/01/29 05:05:12;;;;;;;;;;;;;;;;;;7368727;19;1831;-70
2023/01/29 05:07:40;;;;;;;;;;;;;;;;;;7369327;19;1874;-70
2023/01/29 05:10:08;;;;;;;;;;;;;;;;;;7368646;19;827;-68
2023/01/29 05:12:36;;;;;;;;;;;;;;;;;;7367646;19;1670;-69
2023/01/29 05:15:04;;;;;;;;;;;;;;;;;;7366278;19;1861;-69
2023/01/29 05:17:32;;;;;;;;;;;;;;;;;;7368325;19;1735;-69
2023/01/29 05:20:01;;;;;;;;;;;;;;;;;;7367394;19;1849;-71
2023/01/29 05:22:30;;;;;;;;;;;;;;;;;;7368747;19;1817;-69
2023/01/29 05:24:58;;;;;;;;;;;;;;;;;;7367003;19;1287;-68
2023/01/29 05:30:07;;;;;;;;;;;;;;;;;;7368584;19;1562;-69
2023/01/29 05:32:35;;;;;;;;;;;;;;;;;;7369577;19;1645;-70
2023/01/29 05:35:03;;;;;;;;;;;;;;;;;;7367787;19;1842;-68
2023/01/29 05:37:31;;;;;;;;;;;;;;;;;;7366548;19;820;-68
2023/01/29 05:39:59;;;;;;;;;;;;;;;;;;7370675;19;1814;-68
2023/01/29 05:42:27;;;;;;;;;;;;;;;;;;7369665;19;1824;-68
2023/01/29 05:44:56;;;;;;;;;;;;;;;;;;7366006;19;1192;-71
2023/01/29 05:47:24;;;;;;;;;;;;;;;;;;7367428;19;1635;-69
2023/01/29 05:49:52;;;;;;;;;;;;;;;;;;7365777;19;1842;-69
2023/01/29 05:52:20;;;;;;;;;;;;;;;;;;7366569;19;1712;-69
2023/01/29 05:54:48;;;;;;;;;;;;;;;;;;7365652;19;1842;-68
2023/01/29 05:57:16;;;;;;;;;;;;;;;;;;7376976;19;1837;-69
2023/01/29 05:59:45;;;;;;;;;;;;;;;;;;7375000;19;1823;-69
2023/01/29 06:02:13;;;;;;;;;;;;;;;;;;7373504;19;1842;-69
2023/01/29 06:04:41;;;;;;;;;;;;;;;;;;7374429;19;1819;-69
2023/01/29 06:07:09;;;;;;;;;;;;;;;;;;7375021;19;2199;-69
2023/01/29 06:09:37;;;;;;;;;;;;;;;;;;7375077;19;1863;-69
2023/01/29 06:12:06;;;;;;;;;;;;;;;;;;7371532;19;1876;-69
2023/01/29 06:14:34;;;;;;;;;;;;;;;;;;7371419;19;913;-69
2023/01/29 06:17:03;;;;;;;;;;;;;;;;;;7370098;19;1668;-69
2023/01/29 06:19:31;;;;;;;;;;;;;;;;;;7371603;19;883;-69
2023/01/29 06:22:00;;;;;;;;;;;;;;;;;;7373645;19;1851;-69
2023/01/29 06:24:28;;;;;;;;;;;;;;;;;;7375364;19;1880;-68
2023/01/29 06:26:56;;;;;;;;;;;;;;;;;;7373916;19;1682;-69
2023/01/29 06:29:24;;;;;;;;;;;;;;;;;;7372320;19;1862;-69
2023/01/29 06:31:52;;;;;;;;;;;;;;;;;;7374919;19;1851;-70
2023/01/29 06:34:20;;;;;;;;;;;;;;;;;;7374582;19;1865;-69
2023/01/29 06:36:49;;;;;;;;;;;;;;;;;;7373328;19;1888;-69
2023/01/29 06:39:17;;;;;;;;;;;;;;;;;;7373224;19;1619;-68
2023/01/29 06:41:45;;;;;;;;;;;;;;;;;;7372841;19;1690;-69
2023/01/29 06:44:13;;;;;;;;;;;;;;;;;;7375047;19;1660;-70
2023/01/29 06:46:41;;;;;;;;;;;;;;;;;;7373611;19;1598;-69
2023/01/29 06:49:09;;;;;;;;;;;;;;;;;;7372518;19;2155;-69
2023/01/29 06:51:37;;;;;;;;;;;;;;;;;;7375140;19;1631;-70
2023/01/29 06:54:07;;;;;;;;;;;;;;;;;;7370041;19;792;-69
2023/01/29 06:56:35;;;;;;;;;;;;;;;;;;7372538;19;1838;-69
2023/01/29 06:59:03;;;;;;;;;;;;;;;;;;7373868;19;1872;-69
2023/01/29 07:01:31;;;;;;;;;;;;;;;;;;7373670;19;1599;-69
2023/01/29 07:03:59;;;;;;;;;;;;;;;;;;7373948;19;1891;-69
2023/01/29 07:06:27;;;;;;;;;;;;;;;;;;7368182;19;1703;-69
2023/01/29 07:08:56;;;;;;;;;;;;;;;;;;7370886;19;791;-70
2023/01/29 07:11:24;;;;;;;;;;;;;;;;;;7372843;19;877;-69
2023/01/29 07:13:52;;;;;;;;;;;;;;;;;;7375367;19;1636;-69
2023/01/29 07:16:20;;;;;;;;;;;;;;;;;;7369955;19;1878;-70
2023/01/29 07:18:48;;;;;;;;;;;;;;;;;;7371425;19;1692;-69
2023/01/29 07:21:16;;;;;;;;;;;;;;;;;;7369128;19;779;-69
2023/01/29 07:23:44;;;;;;;;;;;;;;;;;;7370661;19;807;-69
2023/01/29 07:26:13;;;;;;;;;;;;;;;;;;7367821;19;1236;-69
2023/01/29 07:28:41;;;;;;;;;;;;;;;;;;7369695;19;1141;-69
2023/01/29 07:31:09;;;;;;;;;;;;;;;;;;7370602;19;808;-70
2023/01/29 07:33:37;;;;;;;;;;;;;;;;;;7373424;19;772;-70
2023/01/29 07:36:05;;;;;;;;;;;;;;;;;;7368867;19;1857;-69
2023/01/29 07:38:33;;;;;;;;;;;;;;;;;;7369233;19;858;-69
2023/01/29 07:41:02;;;;;;;;;;;;;;;;;;7370635;19;842;-69
2023/01/29 07:43:30;;;;;;;;;;;;;;;;;;7369899;19;863;-69
2023/01/29 07:45:58;;;;;;;;;;;;;;;;;;7368974;19;2155;-70
2023/01/29 07:48:26;;;;;;;;;;;;;;;;;;7369098;19;793;-70
2023/01/29 07:50:54;;;;;;;;;;;;;;;;;;7370709;19;808;-70
2023/01/29 07:53:22;;;;;;;;;;;;;;;;;;7370496;19;829;-68
2023/01/29 07:55:50;;;;;;;;;;;;;;;;;;7367633;19;1856;-69
2023/01/29 07:58:19;;;;;;;;;;;;;;;;;;7370020;19;766;-70
2023/01/29 08:00:47;;;;;;;;;;;;;;;;;;7371237;19;836;-70
2023/01/29 08:03:15;;;;;;;;;;;;;;;;;;7370034;19;866;-69
2023/01/29 08:05:43;;;;;;;;;;;;;;;;;;7366676;19;1389;-69
2023/01/29 08:08:11;;;;;;;;;;;;;;;;;;7369226;19;826;-70
2023/01/29 08:10:39;;;;;;;;;;;;;;;;;;7368359;19;864;-70
2023/01/29 08:13:08;;;;;;;;;;;;;;;;;;7368730;19;792;-70
2023/01/29 08:15:36;;;;;;;;;;;;;;;;;;7368288;19;2231;-71
2023/01/29 08:18:04;;;;;;;;;;;;;;;;;;7367253;19;847;-70
2023/01/29 08:20:32;;;;;;;;;;;;;;;;;;7369059;19;863;-70
2023/01/29 08:23:00;;;;;;;;;;;;;;;;;;7370659;19;815;-69
2023/01/29 08:25:28;;;;;;;;;;;;;;;;;;7369273;19;1284;-69
2023/01/29 08:27:57;;;;;;;;;;;;;;;;;;7370675;19;827;-71
2023/01/29 08:30:25;;;;;;;;;;;;;;;;;;7374115;19;1223;-69
2023/01/29 08:32:53;;;;;;;;;;;;;;;;;;7368200;19;854;-69
2023/01/29 08:35:21;;;;;;;;;;;;;;;;;;7367804;19;1842;-69
2023/01/29 08:37:49;;;;;;;;;;;;;;;;;;7367975;19;776;-70
2023/01/29 08:40:17;;;;;;;;;;;;;;;;;;7368837;19;849;-70
2023/01/29 08:42:45;;;;;;;;;;;;;;;;;;7367024;19;815;-70
2023/01/29 08:45:14;;;;;;;;;;;;;;;;;;7368465;19;1859;-69
2023/01/29 08:47:42;;;;;;;;;;;;;;;;;;7366684;19;764;-69
2023/01/29 08:50:10;;;;;;;;;;;;;;;;;;7369080;19;711;-70
2023/01/29 08:52:38;;;;;;;;;;;;;;;;;;7370763;19;871;-70
2023/01/29 08:55:06;;;;;;;;;;;;;;;;;;7367796;19;1318;-70
2023/01/29 08:57:34;;;;;;;;;;;;;;;;;;7365889;19;1837;-70
2023/01/29 09:00:04;;;;;;;;;;;;;;;;;;7371835;19;1776;-70
2023/01/29 09:02:32;;;;;;;;;;;;;;;;;;7370947;19;1608;-69
2023/01/29 09:05:00;;;;;;;;;;;;;;;;;;7370504;19;1882;-69
2023/01/29 09:07:28;;;;;;;;;;;;;;;;;;7373132;19;1886;-70
2023/01/29 09:09:56;;;;;;;;;;;;;;;;;;7367460;19;678;-71
2023/01/29 09:12:25;;;;;;;;;;;;;;;;;;7368769;19;803;-70
2023/01/29 09:14:53;;;;;;;;;;;;;;;;;;7369770;19;1910;-70
2023/01/29 09:17:21;;;;;;;;;;;;;;;;;;7365916;19;1857;-70
2023/01/29 09:19:51;;;;;;;;;;;;;;;;;;7366958;19;807;-70
2023/01/29 09:22:19;;;;;;;;;;;;;;;;;;7367668;19;2081;-71
2023/01/29 09:24:47;;;;;;;;;;;;;;;;;;7367677;19;1996;-70
2023/01/29 09:27:15;;;;;;;;;;;;;;;;;;7368170;19;2029;-70
2023/01/29 09:29:43;;;;;;;;;;;;;;;;;;7364602;19;2160;-68
2023/01/29 09:32:12;;;;;;;;;;;;;;;;;;7371068;19;1260;-71
2023/01/29 09:34:40;;;;;;;;;;;;;;;;;;7372406;19;817;-69
2023/01/29 09:37:08;;;;;;;;;;;;;;;;;;7369411;19;1825;-69
2023/01/29 09:39:36;;;;;;;;;;;;;;;;;;7373162;19;866;-69
2023/01/29 09:42:05;;;;;;;;;;;;;;;;;;7370026;19;784;-69
2023/01/29 09:44:33;;;;;;;;;;;;;;;;;;7376028;19;2054;-72
2023/01/29 09:47:03;;;;;;;;;;;;;;;;;;7360556;19;1842;-69
2023/01/29 09:49:31;;;;;;;;;;;;;;;;;;7368383;19;1153;-70
2023/01/29 09:51:59;;;;;;;;;;;;;;;;;;7372959;19;1049;-70
2023/01/29 09:54:27;;;;;;;;;;;;;;;;;;7377056;19;839;-71
2023/01/29 09:56:55;;;;;;;;;;;;;;;;;;7378344;19;1847;-70
2023/01/29 09:59:24;;;;;;;;;;;;;;;;;;7378416;19;804;-70
2023/01/29 10:01:52;;;;;;;;;;;;;;;;;;7382503;19;849;-71
2023/01/29 10:04:20;;;;;;;;;;;;;;;;;;7382120;19;839;-70
2023/01/29 10:06:48;;;;;;;;;;;;;;;;;;7380662;19;1505;-71
2023/01/29 10:09:16;;;;;;;;;;;;;;;;;;7380406;19;1079;-70
2023/01/29 10:11:44;;;;;;;;;;;;;;;;;;7380295;19;1165;-71
2023/01/29 10:14:13;;;;;;;;;;;;;;;;;;7378527;19;1758;-71
2023/01/29 10:16:41;;;;;;;;;;;;;;;;;;7376156;19;1880;-71
2023/01/29 10:19:09;;;;;;;;;;;;;;;;;;7375603;19;775;-70
2023/01/29 10:21:37;;;;;;;;;;;;;;;;;;7371640;19;1038;-70
2023/01/29 10:24:06;;;;;;;;;;;;;;;;;;7370640;19;719;-71
2023/01/29 10:26:36;;;;;;;;;;;;;;;;;;7368414;19;1385;-70
2023/01/29 10:29:04;;;;;;;;;;;;;;;;;;7369134;19;712;-69
2023/01/29 10:31:37;;;;;;;;;;;;;;;;;;7370024;19;826;-69
2023/01/29 10:34:05;;;;;;;;;;;;;;;;;;7373066;19;793;-69
2023/01/29 10:36:33;;;;;;;;;;;;;;;;;;7371517;19;1830;-70
2023/01/29 10:39:01;;;;;;;;;;;;;;;;;;7373095;19;795;-70
2023/01/29 10:41:30;;;;;;;;;;;;;;;;;;7373819;19;818;-71
2023/01/29 10:43:58;;;;;;;;;;;;;;;;;;7380709;19;862;-71
2023/01/29 10:46:26;;;;;;;;;;;;;;;;;;7381141;19;1858;-71
2023/01/29 10:48:54;;;;;;;;;;;;;;;;;;7380478;19;824;-72
2023/01/29 10:51:22;;;;;;;;;;;;;;;;;;7380958;19;878;-71
2023/01/29 10:53:51;;;;;;;;;;;;;;;;;;7380484;19;870;-70
2023/01/29 10:56:19;;;;;;;;;;;;;;;;;;7377133;19;1841;-70
2023/01/29 10:58:47;;;;;;;;;;;;;;;;;;7377046;19;907;-71
2023/01/29 11:01:15;;;;;;;;;;;;;;;;;;7374485;19;966;-72
2023/01/29 11:03:43;;;;;;;;;;;;;;;;;;7372610;19;767;-71
2023/01/29 11:06:11;;;;;;;;;;;;;;;;;;7369968;19;1349;-71
2023/01/29 11:08:40;;;;;;;;;;;;;;;;;;7370109;19;796;-71
2023/01/29 11:11:08;;;;;;;;;;;;;;;;;;7376282;19;808;-71
2023/01/29 11:13:36;;;;;;;;;;;;;;;;;;7375636;19;1923;-71
2023/01/29 11:16:04;;;;;;;;;;;;;;;;;;7376921;19;1852;-69
2023/01/29 11:18:32;;;;;;;;;;;;;;;;;;7374897;19;1814;-71
2023/01/29 11:21:01;;;;;;;;;;;;;;;;;;7372733;19;891;-71
2023/01/29 11:23:29;;;;;;;;;;;;;;;;;;7379078;19;1453;-72
2023/01/29 11:25:57;;;;;;;;;;;;;;;;;;7376426;19;1295;-71
2023/01/29 11:28:25;;;;;;;;;;;;;;;;;;7374914;19;796;-71
2023/01/29 11:30:53;;;;;;;;;;;;;;;;;;7375076;19;894;-71
2023/01/29 11:33:22;;;;;;;;;;;;;;;;;;7376371;19;812;-71
2023/01/29 11:35:51;;;;;;;;;;;;;;;;;;7375674;19;1270;-70
2023/01/29 11:38:19;;;;;;;;;;;;;;;;;;7370187;19;1845;-71
2023/01/29 11:40:48;;;;;;;;;;;;;;;;;;7379026;19;1831;-71
2023/01/29 11:43:16;;;;;;;;;;;;;;;;;;7375862;19;863;-70
2023/01/29 11:45:44;;;;;;;;;;;;;;;;;;7371027;19;1896;-70
2023/01/29 11:48:12;;;;;;;;;;;;;;;;;;7373314;19;948;-70
2023/01/29 11:50:40;;;;;;;;;;;;;;;;;;7375411;19;1291;-71
2023/01/29 11:53:08;;;;;;;;;;;;;;;;;;7369729;19;808;-70
2023/01/29 11:55:43;;;;;;;;;;;;;;;;;;7375751;19;1843;-73
2023/01/29 11:58:12;;;;;;;;;;;;;;;;;;7380134;19;1840;-70
2023/01/29 12:00:40;;;;;;;;;;;;;;;;;;7379149;19;879;-73
2023/01/29 12:03:08;;;;;;;;;;;;;;;;;;7381983;19;828;-72
2023/01/29 12:05:37;;;;;;;;;;;;;;;;;;7382478;19;1300;-72
2023/01/29 12:08:10;;;;;;;;;;;;;;;;;;7381357;19;808;-71
2023/01/29 12:10:39;;;;;;;;;;;;;;;;;;7380521;19;951;-71
2023/01/29 12:13:07;;;;;;;;;;;;;;;;;;7380766;19;937;-71
2023/01/29 12:15:41;;;;;;;;;;;;;;;;;;7390904;19;1545;-71
2023/01/29 12:18:18;;;;;;;;;;;;;;;;;;7372866;19;1850;-72
2023/01/29 12:20:46;;;;;;;;;;;;;;;;;;7375041;19;847;-71
2023/01/29 12:23:15;;;;;;;;;;;;;;;;;;7371221;19;758;-72
2023/01/29 12:25:43;;;;;;;;;;;;;;;;;;7373758;19;1255;-73
2023/01/29 12:28:11;;;;;;;;;;;;;;;;;;7373650;19;883;-73
2023/01/29 12:30:39;;;;;;;;;;;;;;;;;;7372523;19;859;-73
2023/01/29 12:33:07;;;;;;;;;;;;;;;;;;7373826;19;843;-71
2023/01/29 12:35:36;;;;;;;;;;;;;;;;;;7376848;19;1826;-72
2023/01/29 12:38:04;;;;;;;;;;;;;;;;;;7367574;19;1855;-72
2023/01/29 12:40:32;;;;;;;;;;;;;;;;;;7376663;19;848;-71
2023/01/29 12:43:00;;;;;;;;;;;;;;;;;;7375661;19;819;-72
2023/01/29 12:45:28;;;;;;;;;;;;;;;;;;7378521;19;1693;-72
2023/01/29 12:47:57;;;;;;;;;;;;;;;;;;7374859;19;857;-72
2023/01/29 12:50:25;;;;;;;;;;;;;;;;;;7373441;19;904;-71
2023/01/29 12:52:53;;;;;;;;;;;;;;;;;;7374067;19;783;-72
2023/01/29 12:55:21;;;;;;;;;;;;;;;;;;7369717;19;1294;-71
2023/01/29 12:57:49;;;;;;;;;;;;;;;;;;7366756;19;1837;-71
2023/01/29 13:00:17;;;;;;;;;;;;;;;;;;7371229;19;786;-71
2023/01/29 13:02:46;;;;;;;;;;;;;;;;;;7372352;19;1138;-72
2023/01/29 13:05:14;;;;;;;;;;;;;;;;;;7365739;19;1294;-69
2023/01/29 13:07:44;;;;;;;;;;;;;;;;;;7368390;19;846;-71
2023/01/29 13:10:13;;;;;;;;;;;;;;;;;;7369553;19;768;-71
2023/01/29 13:12:41;;;;;;;;;;;;;;;;;;7368583;19;827;-72
2023/01/29 13:15:10;;;;;;;;;;;;;;;;;;7373760;19;2137;-71
2023/01/29 13:17:38;;;;;;;;;;;;;;;;;;7365487;19;1866;-72
2023/01/29 13:20:06;;;;;;;;;;;;;;;;;;7370585;19;797;-71
2023/01/29 13:22:34;;;;;;;;;;;;;;;;;;7367423;19;849;-71
2023/01/29 13:25:02;;;;;;;;;;;;;;;;;;7370870;19;1349;-72
2023/01/29 13:27:31;;;;;;;;;;;;;;;;;;7369489;19;795;-72
2023/01/29 13:29:59;;;;;;;;;;;;;;;;;;7367716;19;815;-70
2023/01/29 13:32:27;;;;;;;;;;;;;;;;;;7369588;19;799;-71
2023/01/29 13:34:55;;;;;;;;;;;;;;;;;;7370501;19;1305;-71
2023/01/29 13:37:24;;;;;;;;;;;;;;;;;;7371355;19;1855;-71
2023/01/29 13:39:52;;;;;;;;;;;;;;;;;;7372482;19;902;-71
2023/01/29 13:42:21;;;;;;;;;;;;;;;;;;7367801;19;920;-71
2023/01/29 13:44:49;;;;;;;;;;;;;;;;;;7368686;19;2124;-71
2023/01/29 13:47:17;;;;;;;;;;;;;;;;;;7367618;19;819;-72
2023/01/29 13:49:45;;;;;;;;;;;;;;;;;;7375328;19;1816;-71
2023/01/29 13:52:13;;;;;;;;;;;;;;;;;;7369658;19;811;-70
2023/01/29 13:54:41;;;;;;;;;;;;;;;;;;7370703;19;787;-70
2023/01/29 13:57:10;;;;;;;;;;;;;;;;;;7370208;19;1807;-70
2023/01/29 13:59:38;;;;;;;;;;;;;;;;;;7371478;19;866;-70
2023/01/29 14:02:06;;;;;;;;;;;;;;;;;;7371421;19;836;-70
2023/01/29 14:04:34;;;;;;;;;;;;;;;;;;7372809;19;841;-70
2023/01/29 14:07:03;;;;;;;;;;;;;;;;;;7369998;19;1287;-70
2023/01/29 14:09:31;;;;;;;;;;;;;;;;;;7371396;19;854;-70
2023/01/29 14:11:59;;;;;;;;;;;;;;;;;;7372181;19;810;-70
2023/01/29 14:14:28;;;;;;;;;;;;;;;;;;7371064;19;783;-70
2023/01/29 14:16:56;;;;;;;;;;;;;;;;;;7372511;19;1295;-70
2023/01/29 14:19:24;;;;;;;;;;;;;;;;;;7374315;19;1841;-70
2023/01/29 14:21:52;;;;;;;;;;;;;;;;;;7379723;19;867;-71
2023/01/29 14:24:20;;;;;;;;;;;;;;;;;;7379039;19;808;-69
2023/01/29 14:26:48;;;;;;;;;;;;;;;;;;7375781;19;1275;-70
2023/01/29 14:29:17;;;;;;;;;;;;;;;;;;7379440;19;828;-70
2023/01/29 14:31:45;;;;;;;;;;;;;;;;;;7379224;19;803;-70
2023/01/29 14:34:13;;;;;;;;;;;;;;;;;;7380437;19;1811;-70
2023/01/29 14:36:41;;;;;;;;;;;;;;;;;;7380734;19;1844;-70
2023/01/29 14:39:10;;;;;;;;;;;;;;;;;;7379603;19;1912;-71
2023/01/29 14:41:38;;;;;;;;;;;;;;;;;;7381116;19;749;-72
2023/01/29 14:44:06;;;;;;;;;;;;;;;;;;7376425;19;790;-70
2023/01/29 14:46:34;;;;;;;;;;;;;;;;;;7375598;19;1279;-70
2023/01/29 14:49:02;;;;;;;;;;;;;;;;;;7377849;19;815;-71
2023/01/29 14:51:31;;;;;;;;;;;;;;;;;;7374962;19;795;-71
2023/01/29 14:53:59;;;;;;;;;;;;;;;;;;7379328;19;1870;-70
2023/01/29 14:56:27;;;;;;;;;;;;;;;;;;7373450;19;1274;-71
2023/01/29 14:58:55;;;;;;;;;;;;;;;;;;7374261;19;1806;-70
2023/01/29 15:01:23;;;;;;;;;;;;;;;;;;7377050;19;2338;-70
2023/01/29 15:03:52;;;;;;;;;;;;;;;;;;7374400;19;815;-69
2023/01/29 15:06:20;;;;;;;;;;;;;;;;;;7372276;19;1346;-69
2023/01/29 15:08:48;;;;;;;;;;;;;;;;;;7374645;19;1705;-70
2023/01/29 15:13:57;;;;;;;;;;;;;;;;;;7376340;19;796;-69
2023/01/29 15:16:25;;;;;;;;;;;;;;;;;;7371617;19;1298;-68
2023/01/29 15:18:53;;;;;;;;;;;;;;;;;;7373068;19;1835;-69
2023/01/29 15:21:21;;;;;;;;;;;;;;;;;;7373724;19;886;-69
2023/01/29 15:23:52;;;;;;;;;;;;;;;;;;7370838;19;1028;-69
2023/01/29 15:26:21;;;;;;;;;;;;;;;;;;7371848;19;1349;-69
2023/01/29 15:28:49;;;;;;;;;;;;;;;;;;7370046;19;808;-69
2023/01/29 15:31:17;;;;;;;;;;;;;;;;;;7372827;19;827;-70
2023/01/29 15:33:45;;;;;;;;;;;;;;;;;;7374636;19;1835;-69
2023/01/29 15:36:13;;;;;;;;;;;;;;;;;;7370064;19;1302;-71
2023/01/29 15:38:42;;;;;;;;;;;;;;;;;;7370980;19;1846;-69
2023/01/29 15:41:10;;;;;;;;;;;;;;;;;;7371969;19;869;-70
2023/01/29 15:43:38;;;;;;;;;;;;;;;;;;7371100;19;850;-69
2023/01/29 15:46:06;;;;;;;;;;;;;;;;;;7369447;19;1351;-70
2023/01/29 15:48:34;;;;;;;;;;;;;;;;;;7368997;19;869;-70
2023/01/29 15:51:03;;;;;;;;;;;;;;;;;;7370618;19;795;-69
2023/01/29 15:53:32;;;;;;;;;;;;;;;;;;7372204;19;934;-70
2023/01/29 15:56:00;;;;;;;;;;;;;;;;;;7371343;19;1278;-70
2023/01/29 15:58:28;;;;;;;;;;;;;;;;;;7371128;19;1845;-70
2023/01/29 16:00:56;;;;;;;;;;;;;;;;;;7371227;19;853;-70
2023/01/29 16:03:25;;;;;;;;;;;;;;;;;;7371489;19;823;-70
2023/01/29 16:05:53;;;;;;;;;;;;;;;;;;7371831;19;1330;-71
2023/01/29 16:08:21;;;;;;;;;;;;;;;;;;7370637;19;778;-69
2023/01/29 16:10:49;;;;;;;;;;;;;;;;;;7379735;19;1536;-71
2023/01/29 16:13:17;;;;;;;;;;;;;;;;;;7374347;19;800;-71
2023/01/29 16:15:46;;;;;;;;;;;;;;;;;;7370218;19;1278;-71
2023/01/29 16:18:14;;;;;;;;;;;;;;;;;;7369343;19;1849;-72
2023/01/29 16:20:42;;;;;;;;;;;;;;;;;;7374056;19;839;-71
2023/01/29 16:23:11;;;;;;;;;;;;;;;;;;7374311;19;853;-73
2023/01/29 16:25:39;;;;;;;;;;;;;;;;;;7368128;19;1400;-71
2023/01/29 16:28:09;;;;;;;;;;;;;;;;;;7372697;19;791;-71
2023/01/29 16:30:40;;;;;;;;;;;;;;;;;;7379404;19;723;-72
2023/01/29 16:33:08;;;;;;;;;;;;;;;;;;7377905;19;794;-72
2023/01/29 16:35:36;;;;;;;;;;;;;;;;;;7378650;19;1402;-71
2023/01/29 16:38:06;;;;;;;;;;;;;;;;;;7374570;19;1802;-73
2023/01/29 16:40:36;;;;;;;;;;;;;;;;;;7377015;19;1557;-72
2023/01/29 16:43:04;;;;;;;;;;;;;;;;;;7376728;19;897;-71
2023/01/29 16:45:32;;;;;;;;;;;;;;;;;;7371975;19;1239;-73
2023/01/29 16:48:00;;;;;;;;;;;;;;;;;;7372870;19;872;-72
2023/01/29 16:50:32;;;;;;;;;;;;;;;;;;7374714;19;807;-72
2023/01/29 16:53:00;;;;;;;;;;;;;;;;;;7372945;19;761;-70
2023/01/29 16:55:28;;;;;;;;;;;;;;;;;;7371076;19;1302;-71
2023/01/29 16:57:56;;;;;;;;;;;;;;;;;;7372701;19;1853;-71
2023/01/29 17:00:25;;;;;;;;;;;;;;;;;;7373117;19;803;-72
2023/01/29 17:02:53;;;;;;;;;;;;;;;;;;7373701;19;797;-72
2023/01/29 17:05:21;;;;;;;;;;;;;;;;;;7369489;19;1362;-73
2023/01/29 17:07:50;;;;;;;;;;;;;;;;;;7372555;19;849;-71
2023/01/29 17:10:18;;;;;;;;;;;;;;;;;;7381109;19;1428;-73
2023/01/29 17:12:46;;;;;;;;;;;;;;;;;;7375135;19;766;-72
2023/01/29 17:15:14;;;;;;;;;;;;;;;;;;7377817;19;1282;-73
2023/01/29 17:17:42;;;;;;;;;;;;;;;;;;7371146;19;735;-72
2023/01/29 17:20:11;;;;;;;;;;;;;;;;;;7368181;19;1826;-72
2023/01/29 17:22:39;;;;;;;;;;;;;;;;;;7375214;19;1817;-72
2023/01/29 17:25:08;;;;;;;;;;;;;;;;;;7375342;19;1382;-73
2023/01/29 17:27:36;;;;;;;;;;;;;;;;;;7375034;19;875;-72
2023/01/29 17:30:04;;;;;;;;;;;;;;;;;;7373068;19;867;-72
2023/01/29 17:32:32;;;;;;;;;;;;;;;;;;7377088;19;1136;-70
2023/01/29 17:35:01;;;;;;;;;;;;;;;;;;7371776;19;1282;-71
2023/01/29 17:37:29;;;;;;;;;;;;;;;;;;7376331;19;1059;-73
2023/01/29 17:39:58;;;;;;;;;;;;;;;;;;7367294;19;1855;-71
2023/01/29 17:42:27;;;;;;;;;;;;;;;;;;7370771;19;867;-72
2023/01/29 17:44:55;;;;;;;;;;;;;;;;;;7369466;19;1282;-73
2023/01/29 17:47:24;;;;;;;;;;;;;;;;;;7366226;19;938;-71
2023/01/29 17:49:52;;;;;;;;;;;;;;;;;;7366554;19;1822;-71
2023/01/29 17:52:20;;;;;;;;;;;;;;;;;;7381296;19;1865;-70
2023/01/29 17:54:48;;;;;;;;;;;;;;;;;;7381133;19;1397;-70
2023/01/29 17:57:17;;;;;;;;;;;;;;;;;;7390234;19;881;-71
2023/01/29 17:59:47;;;;;;;;;;;;;;;;;;7381077;19;1837;-71